Decoded Metar for K20U ( in ) (IATA:) | Meteo·Mobile Aviation Weather
aviador You're here:

K20U Decoded Metar

in
Report Time2019-02-16 07:15:00
UTC Time2019-02-16 07:28:02
Flight Rules ifr IFR
Wind130° at 15 Gusting to 21 kt
W.Rank130° ranks 7
Current wind is above 130° avg. (10.0)
Visibility9999 m
Phenomena:N/A
Clouds:Overcast 006 Hf
Expected CloudBase > 800 ft AGL from Temp-Dew spread
Ceiling600 ft
Temp-15°C
Dew Point-17°C (85% RH)
AAT-23.9°C
QNH1007 hPa
Raw Report
K20U 160715Z AUTO 13015G21KT 8SM OVC006 M15/M17 A2975 RMK AO2=

Extra information for K20U:More info

Social comments